Time;durP1;ratioP1;P1;durP2;ratioP2;P2;SDS_P1;SDS_P2;PMS_P1;PMS_P2;Temp;Humidity;BMP_temperature;BMP_pressure;BME280_temperature;BME280_humidity;BME280_pressure;Samples;Min_cycle;Max_cycle;Signal;HPM_P1;HPM_P2
2023/10/07 00:00:28;;;;;;;0.55;0.55;;;17.10;99.90;;;;;;4415645;32;20089;-73
2023/10/07 00:02:34;;;;;;;8.00;1.10;;;17.10;99.90;;;;;;4417574;32;20069;-74
2023/10/07 00:04:59;;;;;;;0.37;0.37;;;17.10;99.90;;;;;;4415928;32;20070;-74
2023/10/07 00:07:30;;;;;;;10.85;0.52;;;17.10;99.90;;;;;;4416190;32;20082;-74
2023/10/07 00:09:57;;;;;;;2.20;1.27;;;17.10;99.90;;;;;;4411551;32;20139;-74
2023/10/07 00:12:23;;;;;;;0.30;0.30;;;17.10;99.90;;;;;;4415918;32;20065;-74
2023/10/07 00:14:49;;;;;;;0.85;0.43;;;17.10;99.90;;;;;;4413440;32;20085;-74
2023/10/07 00:17:18;;;;;;;0.62;0.62;;;17.20;99.90;;;;;;4413614;32;20162;-74
2023/10/07 00:19:46;;;;;;;0.65;0.43;;;17.20;99.90;;;;;;4415849;32;20085;-74
2023/10/07 00:22:14;;;;;;;1.40;0.70;;;17.20;99.90;;;;;;4414927;32;20147;-73
2023/10/07 00:24:43;;;;;;;0.60;0.60;;;17.20;99.90;;;;;;4418864;32;20077;-75
2023/10/07 00:27:22;;;;;;;0.40;0.40;;;17.20;99.90;;;;;;4415325;32;20070;-74
2023/10/07 00:29:54;;;;;;;9.80;2.55;;;17.30;99.90;;;;;;4416055;32;20090;-74
2023/10/07 00:32:32;;;;;;;0.85;0.70;;;17.30;99.90;;;;;;4412489;32;20082;-75
2023/10/07 00:35:00;;;;;;;0.43;0.43;;;17.30;99.90;;;;;;4413643;32;20405;-75
2023/10/07 00:37:26;;;;;;;0.40;0.40;;;17.30;99.90;;;;;;4417408;32;20094;-77
2023/10/07 00:39:53;;;;;;;1.62;0.50;;;17.30;99.90;;;;;;4421066;32;20070;-76
2023/10/07 00:42:22;;;;;;;0.30;0.30;;;17.30;99.90;;;;;;4417332;32;20074;-75
2023/10/07 00:44:53;;;;;;;0.40;0.40;;;17.20;99.90;;;;;;4418200;32;20090;-75
2023/10/07 00:47:20;;;;;;;0.30;0.30;;;17.20;99.90;;;;;;4424859;32;20094;-76
2023/10/07 00:52:28;;;;;;;0.50;0.50;;;17.30;99.90;;;;;;4415668;32;20073;-75
2023/10/07 00:57:35;;;;;;;0.30;0.30;;;17.20;99.90;;;;;;4414751;32;20065;-74
2023/10/07 01:02:37;;;;;;;0.98;0.60;;;17.20;99.90;;;;;;4412456;32;20446;-75
2023/10/07 01:05:07;;;;;;;0.30;0.30;;;17.20;99.90;;;;;;4410924;32;20082;-74
2023/10/07 01:07:34;;;;;;;0.82;0.77;;;17.30;99.90;;;;;;4411386;32;20105;-75
2023/10/07 01:12:39;;;;;;;1.85;0.82;;;17.30;99.90;;;;;;4412989;32;20057;-75
2023/10/07 01:15:23;;;;;;;0.40;0.40;;;17.30;99.90;;;;;;4416940;32;20077;-75
2023/10/07 01:17:54;;;;;;;0.40;0.40;;;17.30;99.90;;;;;;4412676;32;20609;-74
2023/10/07 01:20:22;;;;;;;;;;;17.20;99.90;;;;;;4412344;32;20070;-74
2023/10/07 01:23:03;;;;;;;2.83;0.60;;;17.20;99.90;;;;;;4411135;32;20440;-74
2023/10/07 01:25:32;;;;;;;0.62;0.62;;;17.20;99.90;;;;;;4414290;32;20136;-73
2023/10/07 01:28:01;;;;;;;0.60;0.60;;;17.20;99.90;;;;;;4413506;32;20082;-73
2023/10/07 01:30:29;;;;;;;0.43;0.43;;;17.30;99.90;;;;;;4413686;32;20066;-74
2023/10/07 01:33:24;;;;;;;0.40;0.40;;;17.30;99.90;;;;;;4413689;32;20061;-73
2023/10/07 01:36:05;;;;;;;0.37;0.37;;;17.30;99.90;;;;;;4405090;32;20077;-74
2023/10/07 01:38:26;;;;;;;0.50;0.50;;;17.30;99.90;;;;;;4402858;32;20132;-74
2023/10/07 01:43:19;;;;;;;1.33;0.40;;;17.20;99.90;;;;;;4411123;32;20434;-74
2023/10/07 01:45:47;;;;;;;0.60;0.60;;;17.30;99.90;;;;;;4412640;32;20518;-74
2023/10/07 01:48:13;;;;;;;0.47;0.47;;;17.30;99.90;;;;;;4412439;32;20073;-73
2023/10/07 01:50:40;;;;;;;0.50;0.50;;;17.30;99.90;;;;;;4416623;32;20126;-74
2023/10/07 01:53:07;;;;;;;0.30;0.30;;;17.30;99.90;;;;;;4411848;32;20134;-75
2023/10/07 01:55:36;;;;;;;0.30;0.30;;;17.30;99.90;;;;;;4413851;32;20334;-75
2023/10/07 01:58:02;;;;;;;22.02;1.02;;;17.30;99.90;;;;;;4410407;32;20110;-73
2023/10/07 02:00:38;;;;;;;0.62;0.57;;;17.30;99.90;;;;;;4410244;32;20077;-75
2023/10/07 02:03:04;;;;;;;0.47;0.47;;;17.30;99.90;;;;;;4410680;32;20089;-75
2023/10/07 02:05:40;;;;;;;0.30;0.30;;;17.30;99.90;;;;;;4412552;32;20115;-74
2023/10/07 02:08:11;;;;;;;0.40;0.40;;;17.30;99.90;;;;;;4399298;32;20078;-73
2023/10/07 02:10:40;;;;;;;0.62;0.62;;;17.30;99.90;;;;;;4412532;32;20081;-75
2023/10/07 02:13:08;;;;;;;0.70;0.70;;;17.30;99.90;;;;;;4413149;32;20073;-73
2023/10/07 02:15:37;;;;;;;0.52;0.52;;;17.30;99.90;;;;;;4415148;32;20092;-75
2023/10/07 02:18:03;;;;;;;0.43;0.43;;;17.30;99.90;;;;;;4411015;32;20133;-73
2023/10/07 02:20:37;;;;;;;0.32;0.32;;;17.30;99.90;;;;;;4413065;32;20077;-74
2023/10/07 02:23:11;;;;;;;0.93;0.90;;;17.20;99.90;;;;;;4413801;32;20109;-73
2023/10/07 02:25:40;;;;;;;0.30;0.30;;;17.20;99.90;;;;;;4411949;32;20073;-74
2023/10/07 02:28:06;;;;;;;2.00;0.60;;;17.20;99.90;;;;;;4408787;32;20089;-75
2023/10/07 02:30:39;;;;;;;1.27;0.95;;;17.20;99.90;;;;;;4412623;32;20525;-74
2023/10/07 02:33:08;;;;;;;0.40;0.40;;;17.20;99.90;;;;;;4410431;32;20097;-74
2023/10/07 02:35:36;;;;;;;0.85;0.65;;;17.20;99.90;;;;;;4414319;32;20061;-73
2023/10/07 02:38:03;;;;;;;1.37;0.55;;;17.20;99.90;;;;;;4417089;32;20109;-73
2023/10/07 02:40:36;;;;;;;2.33;1.55;;;17.10;99.90;;;;;;4413623;32;20097;-73
2023/10/07 02:43:10;;;;;;;0.62;0.50;;;17.10;99.90;;;;;;4413904;32;20172;-74
2023/10/07 02:45:39;;;;;;;0.55;0.55;;;17.20;99.90;;;;;;4418017;32;20160;-73
2023/10/07 02:48:10;;;;;;;0.47;0.47;;;17.10;99.90;;;;;;4417531;32;20097;-73
2023/10/07 02:50:39;;;;;;;0.57;0.57;;;17.20;99.90;;;;;;4421055;32;20299;-74
2023/10/07 02:53:11;;;;;;;0.50;0.50;;;17.10;99.90;;;;;;4413763;32;20078;-74
2023/10/07 02:55:47;;;;;;;1.65;0.50;;;17.10;99.90;;;;;;4418787;32;20084;-74
2023/10/07 02:58:24;;;;;;;1.00;0.57;;;17.10;99.90;;;;;;4419386;32;20069;-74
2023/10/07 03:00:50;;;;;;;0.43;0.43;;;17.10;99.90;;;;;;4407331;32;20073;-73
2023/10/07 03:03:32;;;;;;;1.02;0.80;;;17.00;99.90;;;;;;4416007;32;20521;-73
2023/10/07 03:05:58;;;;;;;0.30;0.30;;;17.00;99.90;;;;;;4414773;32;20082;-73
2023/10/07 03:08:39;;;;;;;0.55;0.55;;;17.00;99.90;;;;;;4416350;32;20104;-73
2023/10/07 03:11:09;;;;;;;0.40;0.40;;;17.00;99.90;;;;;;4418031;32;20102;-74
2023/10/07 03:13:37;;;;;;;0.35;0.35;;;17.00;99.90;;;;;;4424007;32;20097;-75
2023/10/07 03:16:43;;;;;;;0.85;0.60;;;17.00;99.90;;;;;;4419222;32;20066;-73
2023/10/07 03:19:06;;;;;;;0.68;0.68;;;17.00;99.90;;;;;;4405092;32;20086;-74
2023/10/07 03:24:09;;;;;;;0.50;0.50;;;16.90;99.90;;;;;;4416891;32;20530;-73
2023/10/07 03:26:36;;;;;;;1.85;1.40;;;17.00;99.90;;;;;;4416715;32;20089;-73
2023/10/07 03:29:04;;;;;;;0.60;0.60;;;16.90;99.90;;;;;;4413544;32;20061;-73
2023/10/07 03:31:35;;;;;;;0.50;0.50;;;17.00;99.90;;;;;;4413021;32;20156;-75
2023/10/07 03:34:03;;;;;;;0.60;0.60;;;16.90;99.90;;;;;;4413234;32;20634;-73
2023/10/07 03:36:46;;;;;;;0.52;0.52;;;17.00;99.90;;;;;;4420931;32;20077;-73
2023/10/07 03:41:47;;;;;;;0.80;0.70;;;16.90;99.90;;;;;;4414591;32;20749;-71
2023/10/07 03:44:22;;;;;;;1.25;1.05;;;16.90;99.90;;;;;;4422637;32;20789;-77
2023/10/07 03:46:49;;;;;;;3.35;0.90;;;16.90;99.90;;;;;;4413458;32;20066;-78
2023/10/07 03:49:16;;;;;;;2.55;0.70;;;16.90;99.90;;;;;;4422589;32;20093;-78
2023/10/07 03:51:45;;;;;;;0.40;0.40;;;16.90;99.90;;;;;;4421245;32;20085;-77
2023/10/07 03:54:15;;;;;;;0.82;0.82;;;16.90;99.90;;;;;;4420536;32;20081;-74
2023/10/07 03:56:42;;;;;;;2.65;0.80;;;16.90;99.90;;;;;;4417718;32;20086;-75
2023/10/07 03:59:08;;;;;;;0.57;0.52;;;16.90;99.90;;;;;;4421134;32;20094;-75
2023/10/07 04:01:42;;;;;;;0.60;0.60;;;16.90;99.90;;;;;;4421804;32;20058;-75
2023/10/07 04:04:11;;;;;;;0.32;0.32;;;16.90;99.90;;;;;;4419397;32;20203;-73
2023/10/07 04:06:41;;;;;;;4.95;1.33;;;16.90;99.90;;;;;;4416325;32;20085;-77
2023/10/07 04:09:07;;;;;;;0.50;0.50;;;16.90;99.90;;;;;;4414668;32;20106;-76
2023/10/07 04:11:36;;;;;;;0.37;0.37;;;16.90;99.90;;;;;;4416028;32;20057;-75
2023/10/07 04:14:35;;;;;;;0.98;0.77;;;16.90;99.90;;;;;;4414385;32;20062;-75
2023/10/07 04:16:50;;;;;;;0.50;0.50;;;16.90;99.90;;;;;;4406658;32;20169;-77
2023/10/07 04:21:45;;;;;;;0.90;0.88;;;16.90;99.90;;;;;;4410821;32;20434;-71
2023/10/07 04:24:12;;;;;;;0.40;0.40;;;16.90;99.90;;;;;;4418997;32;20116;-73
2023/10/07 04:26:39;;;;;;;0.65;0.65;;;16.90;99.90;;;;;;4411572;32;20102;-73
2023/10/07 04:29:08;;;;;;;0.50;0.50;;;16.90;99.90;;;;;;4417914;32;20123;-74
2023/10/07 04:31:38;;;;;;;1.55;0.70;;;16.90;99.90;;;;;;4427657;32;20121;-75
2023/10/07 04:34:11;;;;;;;0.62;0.62;;;16.90;99.90;;;;;;4402426;32;20090;-75
2023/10/07 04:36:54;;;;;;;0.60;0.60;;;16.90;99.90;;;;;;4411254;32;20077;-78
2023/10/07 04:39:26;;;;;;;1.80;0.90;;;16.90;99.90;;;;;;4421474;32;20209;-74
2023/10/07 04:41:57;;;;;;;0.62;0.62;;;16.90;99.90;;;;;;4413665;32;20132;-80
2023/10/07 04:45:36;;;;;;;0.62;0.62;;;16.90;99.90;;;;;;4417310;32;20620;-74
2023/10/07 04:47:46;;;;;;;1.23;0.77;;;16.90;99.90;;;;;;4403438;32;20097;-75
2023/10/07 04:49:59;;;;;;;0.88;0.82;;;16.90;99.90;;;;;;4399626;32;20074;-74
2023/10/07 04:52:28;;;;;;;0.30;0.30;;;16.90;99.90;;;;;;4413320;32;20093;-74
2023/10/07 04:54:58;;;;;;;0.50;0.50;;;16.90;99.90;;;;;;4419890;32;20069;-76
2023/10/07 04:57:56;;;;;;;0.60;0.60;;;16.90;99.90;;;;;;4416661;32;20074;-75
2023/10/07 05:02:59;;;;;;;0.32;0.32;;;16.90;99.90;;;;;;4420860;32;20521;-74
2023/10/07 05:05:30;;;;;;;1.00;0.77;;;16.90;99.90;;;;;;4412764;32;20058;-75
2023/10/07 05:07:58;;;;;;;7.90;0.95;;;16.90;99.90;;;;;;4413890;32;20136;-74
2023/10/07 05:10:28;;;;;;;0.32;0.32;;;16.90;99.90;;;;;;4415355;32;20099;-75
2023/10/07 05:12:55;;;;;;;1.27;0.57;;;16.90;99.90;;;;;;4413057;32;21342;-75
2023/10/07 05:15:21;;;;;;;0.45;0.45;;;16.90;99.90;;;;;;4415756;32;20191;-74
2023/10/07 05:17:51;;;;;;;0.40;0.40;;;16.90;99.90;;;;;;4413312;32;20114;-75
2023/10/07 05:20:27;;;;;;;0.50;0.50;;;16.80;99.90;;;;;;4414595;32;20135;-74
2023/10/07 05:22:53;;;;;;;1.80;1.10;;;16.80;99.90;;;;;;4412416;32;20136;-75
2023/10/07 05:25:19;;;;;;;3.10;0.80;;;16.90;99.90;;;;;;4414254;32;20086;-75
2023/10/07 05:27:44;;;;;;;0.65;0.47;;;16.90;99.90;;;;;;4411546;32;20097;-73
2023/10/07 05:30:12;;;;;;;0.88;0.75;;;16.80;99.90;;;;;;4416119;32;20115;-77
2023/10/07 05:32:39;;;;;;;0.52;0.52;;;16.80;99.90;;;;;;4411317;32;20513;-79
2023/10/07 05:35:05;;;;;;;0.75;0.75;;;16.80;99.90;;;;;;4411942;32;20120;-78
2023/10/07 05:37:30;;;;;;;24.48;2.92;;;16.90;99.90;;;;;;4411424;32;20101;-77
2023/10/07 05:39:56;;;;;;;0.70;0.57;;;16.90;99.90;;;;;;4412840;32;20595;-80
2023/10/07 05:42:22;;;;;;;1.12;0.82;;;16.90;99.90;;;;;;4415764;32;20125;-78
2023/10/07 05:44:48;;;;;;;0.50;0.50;;;16.90;99.90;;;;;;4417476;32;20112;-78
2023/10/07 05:47:14;;;;;;;0.40;0.40;;;16.90;99.90;;;;;;4413535;32;20069;-77
2023/10/07 05:49:41;;;;;;;0.50;0.50;;;16.90;99.90;;;;;;4414517;32;20097;-77
2023/10/07 05:52:06;;;;;;;0.40;0.40;;;16.90;99.90;;;;;;4418202;32;20483;-77
2023/10/07 05:54:32;;;;;;;0.30;0.30;;;16.90;99.90;;;;;;4414984;32;20061;-78
2023/10/07 05:56:58;;;;;;;0.40;0.40;;;16.90;99.90;;;;;;4412938;32;20062;-79
2023/10/07 05:59:24;;;;;;;0.77;0.60;;;16.90;99.90;;;;;;4413622;32;20102;-76
2023/10/07 06:01:50;;;;;;;0.50;0.50;;;16.90;99.90;;;;;;4413512;32;20089;-78
2023/10/07 06:04:17;;;;;;;0.55;0.55;;;16.90;99.90;;;;;;4413310;32;20065;-77
2023/10/07 06:06:43;;;;;;;0.30;0.30;;;16.90;99.90;;;;;;4412699;32;20121;-77
2023/10/07 06:09:13;;;;;;;0.60;0.60;;;16.90;99.90;;;;;;4413791;32;20088;-77
2023/10/07 06:11:39;;;;;;;;;;;16.90;99.90;;;;;;4417783;32;20151;-76
2023/10/07 06:14:04;;;;;;;1.05;0.60;;;16.80;99.90;;;;;;4419810;32;19961;-77
2023/10/07 06:16:31;;;;;;;0.70;0.70;;;16.80;99.90;;;;;;4415101;32;20093;-77
2023/10/07 06:18:58;;;;;;;0.62;0.60;;;16.80;99.90;;;;;;4418589;32;20103;-77
2023/10/07 06:21:31;;;;;;;0.43;0.43;;;16.80;99.90;;;;;;4422563;32;20085;-78
2023/10/07 06:23:58;;;;;;;2.15;0.60;;;16.80;99.90;;;;;;4412400;32;20139;-79
2023/10/07 06:26:24;;;;;;;0.40;0.40;;;16.70;99.90;;;;;;4414997;32;20509;-79
2023/10/07 06:28:50;;;;;;;0.40;0.40;;;16.70;99.90;;;;;;4418069;32;20073;-79
2023/10/07 06:31:31;;;;;;;1.00;1.00;;;16.70;99.90;;;;;;4417803;32;20070;-78
2023/10/07 06:34:00;;;;;;;0.40;0.40;;;16.80;99.90;;;;;;4419718;32;20150;-79
2023/10/07 06:36:26;;;;;;;0.40;0.40;;;16.70;99.90;;;;;;4418115;32;20677;-78
2023/10/07 06:38:52;;;;;;;1.02;0.60;;;16.70;99.90;;;;;;4415681;32;20101;-77
2023/10/07 06:41:19;;;;;;;0.40;0.40;;;16.60;99.90;;;;;;4418915;32;20120;-77
2023/10/07 06:43:49;;;;;;;0.50;0.50;;;16.60;99.90;;;;;;4411317;32;20082;-80
2023/10/07 06:46:23;;;;;;;0.40;0.40;;;16.50;99.90;;;;;;4414136;32;20066;-76
2023/10/07 06:48:49;;;;;;;0.50;0.50;;;16.40;99.90;;;;;;4415899;32;20082;-75
2023/10/07 06:51:15;;;;;;;0.30;0.30;;;16.40;99.90;;;;;;4420686;32;20069;-76
2023/10/07 06:53:43;;;;;;;0.35;0.35;;;16.40;99.90;;;;;;4426323;32;20118;-75
2023/10/07 06:56:20;;;;;;;1.08;0.70;;;16.40;99.90;;;;;;4419351;32;20430;-77
2023/10/07 06:58:59;;;;;;;0.90;0.65;;;16.30;99.90;;;;;;4427331;32;20156;-76
2023/10/07 07:04:09;;;;;;;2.70;1.25;;;16.30;99.90;;;;;;4414900;32;20885;-73
2023/10/07 07:06:42;;;;;;;1.02;0.88;;;16.20;99.90;;;;;;4418533;32;20345;-75
2023/10/07 07:09:50;;;;;;;0.60;0.50;;;16.10;99.90;;;;;;4421617;32;20136;-74
2023/10/07 07:12:03;;;;;;;0.50;0.50;;;16.00;99.90;;;;;;4416533;32;20093;-75
2023/10/07 07:14:30;;;;;;;0.43;0.43;;;16.00;99.90;;;;;;4406344;32;20113;-75
2023/10/07 07:17:16;;;;;;;0.60;0.60;;;15.90;99.90;;;;;;4403556;32;20098;-75
2023/10/07 07:19:44;;;;;;;0.50;0.50;;;15.90;99.90;;;;;;4416689;32;20105;-75
2023/10/07 07:22:11;;;;;;;0.52;0.52;;;15.80;99.90;;;;;;4419484;32;20107;-75
2023/10/07 07:24:41;;;;;;;1.08;0.60;;;15.90;99.90;;;;;;4418515;32;20066;-75
2023/10/07 07:27:08;;;;;;;0.68;0.68;;;15.90;99.90;;;;;;4423060;32;20069;-75
2023/10/07 07:29:34;;;;;;;0.98;0.90;;;15.90;99.90;;;;;;4423682;32;20089;-75
2023/10/07 07:32:04;;;;;;;0.47;0.47;;;16.00;99.90;;;;;;4424644;32;20096;-76
2023/10/07 07:34:36;;;;;;;0.93;0.73;;;16.00;99.90;;;;;;4418709;32;20078;-76
2023/10/07 07:37:03;;;;;;;0.40;0.40;;;16.00;99.90;;;;;;4425420;32;20114;-75
2023/10/07 07:39:31;;;;;;;0.93;0.93;;;16.10;99.90;;;;;;4426010;32;20425;-76
2023/10/07 07:42:00;;;;;;;0.62;0.62;;;16.10;99.90;;;;;;4431708;32;20101;-74
2023/10/07 07:44:36;;;;;;;0.50;0.50;;;16.10;99.90;;;;;;4412371;32;20820;-76
2023/10/07 07:47:03;;;;;;;0.50;0.50;;;16.20;99.90;;;;;;4424625;32;20110;-76
2023/10/07 07:49:32;;;;;;;0.70;0.70;;;16.20;99.90;;;;;;4426330;32;20062;-76
2023/10/07 07:51:59;;;;;;;0.40;0.40;;;16.30;99.90;;;;;;4420614;32;20616;-76
2023/10/07 07:54:29;;;;;;;2.60;0.57;;;16.40;99.90;;;;;;4422484;32;20061;-76
2023/10/07 07:56:55;;;;;;;0.55;0.55;;;16.40;99.90;;;;;;4419923;32;20601;-74
2023/10/07 07:59:22;;;;;;;0.57;0.57;;;16.50;99.90;;;;;;4413736;32;20128;-74
2023/10/07 08:02:11;;;;;;;0.60;0.60;;;16.50;99.90;;;;;;4413065;32;20077;-74
2023/10/07 08:04:50;;;;;;;0.40;0.40;;;16.50;99.90;;;;;;4404303;32;20113;-73
2023/10/07 08:07:24;;;;;;;0.52;0.52;;;16.50;99.90;;;;;;4398944;32;20098;-75
2023/10/07 08:09:53;;;;;;;0.55;0.55;;;16.60;99.90;;;;;;4415181;32;20927;-73
2023/10/07 08:12:28;;;;;;;0.60;0.60;;;16.60;99.90;;;;;;4414984;32;20154;-74
2023/10/07 08:14:58;;;;;;;0.50;0.50;;;16.60;99.90;;;;;;4414473;32;20081;-74
2023/10/07 08:17:27;;;;;;;0.60;0.60;;;16.60;99.90;;;;;;4415623;32;20093;-75
2023/10/07 08:19:53;;;;;;;1.65;1.02;;;16.60;99.90;;;;;;4415608;32;20081;-75
2023/10/07 08:22:19;;;;;;;2.17;0.50;;;16.60;99.90;;;;;;4416423;32;20078;-74
2023/10/07 08:24:45;;;;;;;0.43;0.43;;;16.60;99.90;;;;;;4415209;32;20089;-75
2023/10/07 08:28:18;;;;;;;0.50;0.50;;;16.70;99.90;;;;;;4413229;32;20170;-74
2023/10/07 08:30:05;;;;;;;0.52;0.52;;;16.60;99.90;;;;;;4404777;32;20152;-75
2023/10/07 08:32:41;;;;;;;0.47;0.47;;;16.70;99.90;;;;;;4415247;32;20094;-76
2023/10/07 08:35:14;;;;;;;0.45;0.45;;;16.60;99.90;;;;;;4414951;32;20062;-76
2023/10/07 08:37:45;;;;;;;0.75;0.60;;;16.60;99.90;;;;;;4414079;32;20090;-74
2023/10/07 08:40:25;;;;;;;1.35;0.85;;;16.60;99.90;;;;;;4415997;32;20560;-74
2023/10/07 08:42:55;;;;;;;0.43;0.43;;;16.60;99.90;;;;;;4415366;32;20086;-74
2023/10/07 08:45:23;;;;;;;20.92;1.02;;;16.70;99.90;;;;;;4416631;32;20147;-75
2023/10/07 08:47:52;;;;;;;1.52;0.98;;;16.70;99.90;;;;;;4412693;32;20171;-76
2023/10/07 08:50:22;;;;;;;0.43;0.43;;;16.70;99.90;;;;;;4413662;32;20535;-74
2023/10/07 08:52:52;;;;;;;0.50;0.50;;;16.70;99.90;;;;;;4419445;32;20179;-74
2023/10/07 08:55:19;;;;;;;0.50;0.50;;;16.70;99.90;;;;;;4417097;32;20549;-73
2023/10/07 08:57:47;;;;;;;3.65;0.68;;;16.70;99.90;;;;;;4419538;32;20090;-75
2023/10/07 09:00:21;;;;;;;0.40;0.40;;;16.70;99.90;;;;;;4418404;32;20069;-74
2023/10/07 09:02:47;;;;;;;0.40;0.40;;;16.80;99.90;;;;;;4411556;32;20546;-75
2023/10/07 09:05:16;;;;;;;0.35;0.35;;;16.80;99.90;;;;;;4412837;32;20525;-73
2023/10/07 09:07:48;;;;;;;0.37;0.37;;;16.80;99.90;;;;;;4412422;32;20094;-75
2023/10/07 09:10:15;;;;;;;0.40;0.40;;;16.80;99.90;;;;;;4414354;32;20057;-75
2023/10/07 09:12:49;;;;;;;0.55;0.55;;;16.90;99.90;;;;;;4411281;32;20089;-75
2023/10/07 09:15:20;;;;;;;0.82;0.65;;;16.90;99.90;;;;;;4412633;32;20058;-75
2023/10/07 09:17:46;;;;;;;1.12;1.02;;;16.90;99.90;;;;;;4412289;32;20105;-75
2023/10/07 09:20:17;;;;;;;0.37;0.37;;;16.90;99.90;;;;;;4414916;32;20102;-74
2023/10/07 09:22:45;;;;;;;10.20;0.98;;;16.90;99.90;;;;;;4414898;32;20589;-74
2023/10/07 09:25:19;;;;;;;0.50;0.50;;;16.90;99.90;;;;;;4412136;32;20094;-76
2023/10/07 09:27:54;;;;;;;0.40;0.40;;;16.90;99.90;;;;;;4410327;32;20098;-76
2023/10/07 09:30:52;;;;;;;1.35;0.70;;;16.90;99.90;;;;;;4414306;32;20481;-76
2023/10/07 09:33:13;;;;;;;0.40;0.40;;;16.90;99.90;;;;;;4407059;32;20549;-74
2023/10/07 09:35:42;;;;;;;0.40;0.40;;;16.90;99.90;;;;;;4411054;32;20081;-75
2023/10/07 09:38:12;;;;;;;0.30;0.30;;;16.90;99.90;;;;;;4413880;32;20151;-75
2023/10/07 09:41:38;;;;;;;0.50;0.50;;;16.90;99.90;;;;;;4411788;32;20069;-75
2023/10/07 09:43:27;;;;;;;0.40;0.40;;;16.90;99.90;;;;;;4399219;32;20509;-75
2023/10/07 09:45:53;;;;;;;1.20;0.90;;;16.90;99.90;;;;;;4414526;32;20106;-75
2023/10/07 09:48:23;;;;;;;0.50;0.50;;;16.90;99.90;;;;;;4417604;32;20434;-75
2023/10/07 09:50:55;;;;;;;0.43;0.43;;;16.90;99.90;;;;;;4414998;32;20459;-75
2023/10/07 09:53:48;;;;;;;0.50;0.50;;;16.90;99.90;;;;;;4413390;32;20468;-74
2023/10/07 09:56:43;;;;;;;0.75;0.50;;;16.90;99.90;;;;;;4404550;32;20085;-75
2023/10/07 09:59:22;;;;;;;1.77;1.00;;;16.80;99.90;;;;;;4400048;32;20089;-75
2023/10/07 10:02:24;;;;;;;0.77;0.77;;;16.80;99.90;;;;;;4412665;32;20197;-75
2023/10/07 10:05:12;;;;;;;0.60;0.60;;;16.80;99.90;;;;;;4416647;32;20093;-74
2023/10/07 10:08:11;;;;;;;1.45;0.70;;;16.80;99.90;;;;;;4410356;32;20086;-75
2023/10/07 10:10:44;;;;;;;0.75;0.60;;;16.80;99.90;;;;;;4400484;32;20066;-74
2023/10/07 10:13:28;;;;;;;0.50;0.50;;;16.80;99.90;;;;;;4412776;32;20097;-75
2023/10/07 10:16:00;;;;;;;1.45;0.75;;;16.80;99.90;;;;;;4418546;32;20109;-75
2023/10/07 10:18:36;;;;;;;1.95;1.20;;;16.80;99.90;;;;;;4424480;32;20085;-75
2023/10/07 10:21:04;;;;;;;0.62;0.57;;;16.80;99.90;;;;;;4418508;32;20434;-75
2023/10/07 10:23:33;;;;;;;0.70;0.70;;;16.80;99.90;;;;;;4403762;32;20066;-75
2023/10/07 10:26:13;;;;;;;0.50;0.50;;;16.90;99.90;;;;;;4405134;32;20132;-75
2023/10/07 10:28:41;;;;;;;2.20;0.57;;;16.90;99.90;;;;;;4414058;32;20089;-76
2023/10/07 10:31:24;;;;;;;0.50;0.50;;;16.90;99.90;;;;;;4415782;32;20069;-75
2023/10/07 10:33:50;;;;;;;0.50;0.50;;;16.90;99.90;;;;;;4420073;32;20130;-75
2023/10/07 10:36:21;;;;;;;4.18;1.65;;;17.00;99.90;;;;;;4418647;32;20525;-75
2023/10/07 10:38:48;;;;;;;0.68;0.68;;;17.00;99.90;;;;;;4400349;32;20078;-76
2023/10/07 10:41:27;;;;;;;0.50;0.50;;;17.00;99.90;;;;;;4413371;32;20544;-75
2023/10/07 10:44:06;;;;;;;1.45;1.00;;;17.00;99.90;;;;;;4409643;32;20093;-75
2023/10/07 10:46:49;;;;;;;1.58;0.80;;;17.00;99.90;;;;;;4416374;32;20118;-75
2023/10/07 10:49:20;;;;;;;0.77;0.65;;;16.90;99.90;;;;;;4415384;32;20176;-76
2023/10/07 10:51:50;;;;;;;0.70;0.70;;;17.00;99.90;;;;;;4413843;32;20411;-76
2023/10/07 10:54:21;;;;;;;0.60;0.60;;;16.90;99.90;;;;;;4417488;32;21331;-76
2023/10/07 10:56:49;;;;;;;0.60;0.60;;;16.90;99.90;;;;;;4401238;32;20066;-75
2023/10/07 10:59:17;;;;;;;0.57;0.57;;;16.90;99.90;;;;;;4419173;32;20156;-75
2023/10/07 11:04:12;;;;;;;0.62;0.62;;;16.80;99.90;;;;;;4422111;32;20100;-75
2023/10/07 11:06:39;;;;;;;0.43;0.43;;;16.70;99.90;;;;;;4419484;32;20105;-75
2023/10/07 11:09:06;;;;;;;0.57;0.57;;;16.70;99.90;;;;;;4426113;32;20098;-75
2023/10/07 11:11:35;;;;;;;3.03;0.95;;;16.60;99.90;;;;;;4426318;32;20170;-75
2023/10/07 11:14:07;;;;;;;18.83;1.05;;;16.60;99.90;;;;;;4421060;32;20642;-75
2023/10/07 11:16:43;;;;;;;0.40;0.40;;;16.60;99.90;;;;;;4402704;32;20517;-76
2023/10/07 11:19:12;;;;;;;0.90;0.90;;;16.70;99.90;;;;;;4418395;32;20140;-75
2023/10/07 11:21:41;;;;;;;2.25;0.60;;;16.70;99.90;;;;;;4424127;32;20517;-75
2023/10/07 11:24:07;;;;;;;0.50;0.50;;;16.70;99.90;;;;;;4420514;32;20127;-75
2023/10/07 11:26:33;;;;;;;0.85;0.85;;;16.70;99.90;;;;;;4413004;32;20089;-75
2023/10/07 11:29:10;;;;;;;1.90;0.95;;;16.80;99.90;;;;;;4406440;32;20486;-74
2023/10/07 11:31:37;;;;;;;2.20;1.05;;;16.80;99.90;;;;;;4414030;32;20687;-74
2023/10/07 11:34:04;;;;;;;1.25;1.08;;;16.90;99.90;;;;;;4411644;32;20077;-76
2023/10/07 11:36:40;;;;;;;1.27;1.08;;;16.90;99.90;;;;;;4416486;32;20473;-75
2023/10/07 11:39:08;;;;;;;2.58;0.60;;;16.90;99.90;;;;;;4411198;32;20821;-76
2023/10/07 11:41:35;;;;;;;0.93;0.80;;;16.90;99.90;;;;;;4417338;32;20173;-75
2023/10/07 11:44:03;;;;;;;1.92;0.65;;;17.00;99.90;;;;;;4419282;32;20121;-75
2023/10/07 11:46:29;;;;;;;1.60;1.00;;;17.10;99.90;;;;;;4418942;32;20559;-75
2023/10/07 11:48:56;;;;;;;10.00;1.27;;;17.10;99.90;;;;;;4412146;32;102196;-76
2023/10/07 11:51:23;;;;;;;0.68;0.68;;;17.10;99.90;;;;;;4413731;32;20107;-76
2023/10/07 11:53:50;;;;;;;0.62;0.62;;;17.10;99.90;;;;;;4415390;32;20054;-75
2023/10/07 11:56:16;;;;;;;0.70;0.70;;;17.10;99.90;;;;;;4417744;32;20077;-76
2023/10/07 11:58:45;;;;;;;0.65;0.65;;;17.10;99.90;;;;;;4416173;32;20066;-76
2023/10/07 12:01:11;;;;;;;0.40;0.40;;;17.10;99.90;;;;;;4419685;32;20110;-75
2023/10/07 12:03:39;;;;;;;0.75;0.75;;;17.20;99.90;;;;;;4412582;32;20089;-75
2023/10/07 12:06:05;;;;;;;0.70;0.55;;;17.20;99.90;;;;;;4413229;32;21358;-76
2023/10/07 12:08:34;;;;;;;2.20;1.20;;;17.20;99.90;;;;;;4413619;32;20085;-75
2023/10/07 12:11:00;;;;;;;1.95;0.90;;;17.20;99.90;;;;;;4420237;32;20127;-75
2023/10/07 12:13:27;;;;;;;0.62;0.60;;;17.10;99.90;;;;;;4415444;32;20093;-75
2023/10/07 12:15:53;;;;;;;0.80;0.80;;;17.10;99.90;;;;;;4414875;32;20118;-76
2023/10/07 12:18:19;;;;;;;0.70;0.70;;;17.00;99.90;;;;;;4413676;32;20057;-75
2023/10/07 12:20:44;;;;;;;0.57;0.55;;;17.00;99.90;;;;;;4414370;32;20074;-75
2023/10/07 12:23:10;;;;;;;0.50;0.50;;;17.00;99.90;;;;;;4413228;32;20142;-75
2023/10/07 12:25:35;;;;;;;1.45;0.82;;;16.90;99.90;;;;;;4413463;32;20065;-75
2023/10/07 12:28:05;;;;;;;0.85;0.85;;;16.90;99.90;;;;;;4412348;32;20054;-75
2023/10/07 12:30:31;;;;;;;0.45;0.45;;;16.90;99.90;;;;;;4411654;32;20535;-75
2023/10/07 12:32:57;;;;;;;0.80;0.80;;;17.00;99.90;;;;;;4414891;32;20132;-74
2023/10/07 12:35:23;;;;;;;0.60;0.60;;;17.00;99.90;;;;;;4417918;32;20065;-75
2023/10/07 12:37:52;;;;;;;1.33;0.88;;;17.10;99.90;;;;;;4421816;32;20075;-73
2023/10/07 12:40:18;;;;;;;1.55;0.50;;;17.10;99.90;;;;;;4412612;32;20081;-72
2023/10/07 12:42:47;;;;;;;0.85;0.70;;;17.20;99.90;;;;;;4410364;32;20098;-72
2023/10/07 12:45:13;;;;;;;1.45;1.00;;;17.20;99.90;;;;;;4412081;32;20140;-76
2023/10/07 12:47:42;;;;;;;0.60;0.60;;;17.30;99.90;;;;;;4416702;32;20434;-73
2023/10/07 12:50:41;;;;;;;3.87;0.60;;;17.30;99.90;;;;;;4413288;32;20086;-72
2023/10/07 12:52:56;;;;;;;1.27;1.00;;;17.40;99.90;;;;;;4399459;32;20150;-71
2023/10/07 12:55:22;;;;;;;1.00;0.90;;;17.40;99.90;;;;;;4413449;32;20512;-74
2023/10/07 12:57:49;;;;;;;0.60;0.60;;;17.40;99.90;;;;;;4415548;32;20078;-73
2023/10/07 13:00:19;;;;;;;0.37;0.37;;;17.40;99.90;;;;;;4410659;32;20095;-74
2023/10/07 13:02:47;;;;;;;0.45;0.40;;;17.50;99.90;;;;;;4414995;32;20469;-73
2023/10/07 13:05:18;;;;;;;0.43;0.43;;;17.50;99.90;;;;;;4415848;32;20878;-74
2023/10/07 13:07:44;;;;;;;1.35;1.08;;;17.50;99.90;;;;;;4416325;32;20058;-73
2023/10/07 13:10:11;;;;;;;0.95;0.55;;;17.50;99.90;;;;;;4409041;32;20069;-73
2023/10/07 13:12:37;;;;;;;0.77;0.77;;;17.60;99.90;;;;;;4412272;32;20545;-74
2023/10/07 13:15:14;;;;;;;0.40;0.40;;;17.60;99.90;;;;;;4409330;32;20058;-73
2023/10/07 13:17:41;;;;;;;0.65;0.65;;;17.60;99.90;;;;;;4411284;32;20506;-73
2023/10/07 13:20:07;;;;;;;0.65;0.65;;;17.60;99.90;;;;;;4408411;32;20050;-74
2023/10/07 13:22:33;;;;;;;2.53;0.80;;;17.70;99.90;;;;;;4414039;32;20564;-73
2023/10/07 13:24:59;;;;;;;0.73;0.73;;;17.70;99.90;;;;;;4417164;32;20115;-73
2023/10/07 13:27:26;;;;;;;0.40;0.40;;;17.60;99.90;;;;;;4412262;32;20164;-73
2023/10/07 13:29:52;;;;;;;3.75;1.10;;;17.70;99.90;;;;;;4412038;32;20534;-75
2023/10/07 13:32:17;;;;;;;1.65;1.20;;;17.70;99.90;;;;;;4412509;32;20136;-74